sensor_id;sensor_type;location;lat;lon;timestamp;P1;durP1;ratioP1;P2;durP2;ratioP2
18867;SDS011;9563;49.240;9.088;2023-04-24T05:01:07;5.43;;;1.50;;
18867;SDS011;9563;49.240;9.088;2023-04-24T05:03:34;3.77;;;1.30;;
18867;SDS011;9563;49.240;9.088;2023-04-24T05:06:01;3.43;;;1.60;;
18867;SDS011;9563;49.240;9.088;2023-04-24T05:08:28;2.50;;;1.77;;
18867;SDS011;9563;49.240;9.088;2023-04-24T05:10:55;3.00;;;1.97;;
18867;SDS011;9563;49.240;9.088;2023-04-24T05:13:22;3.00;;;1.83;;
18867;SDS011;9563;49.240;9.088;2023-04-24T05:15:49;5.43;;;2.10;;
18867;SDS011;9563;49.240;9.088;2023-04-24T05:18:17;5.57;;;2.30;;
18867;SDS011;9563;49.240;9.088;2023-04-24T05:20:44;5.80;;;2.23;;
18867;SDS011;9563;49.240;9.088;2023-04-24T05:23:11;5.93;;;2.33;;
18867;SDS011;9563;49.240;9.088;2023-04-24T05:25:38;5.93;;;2.13;;
18867;SDS011;9563;49.240;9.088;2023-04-24T05:28:05;8.47;;;2.90;;
18867;SDS011;9563;49.240;9.088;2023-04-24T05:30:32;3.00;;;2.23;;
18867;SDS011;9563;49.240;9.088;2023-04-24T05:32:59;8.60;;;2.60;;
18867;SDS011;9563;49.240;9.088;2023-04-24T05:35:27;5.40;;;2.40;;
18867;SDS011;9563;49.240;9.088;2023-04-24T05:37:54;6.20;;;2.63;;
18867;SDS011;9563;49.240;9.088;2023-04-24T05:40:21;3.53;;;2.40;;
18867;SDS011;9563;49.240;9.088;2023-04-24T05:42:47;6.07;;;2.30;;
18867;SDS011;9563;49.240;9.088;2023-04-24T05:45:14;6.50;;;2.70;;
18867;SDS011;9563;49.240;9.088;2023-04-24T05:47:41;6.27;;;3.30;;
18867;SDS011;9563;49.240;9.088;2023-04-24T05:50:09;3.50;;;2.73;;
18867;SDS011;9563;49.240;9.088;2023-04-24T05:52:37;4.97;;;2.47;;
18867;SDS011;9563;49.240;9.088;2023-04-24T05:55:04;4.13;;;2.53;;
18867;SDS011;9563;49.240;9.088;2023-04-24T05:57:32;6.47;;;3.37;;
18867;SDS011;9563;49.240;9.088;2023-04-24T05:59:59;5.50;;;2.70;;
18867;SDS011;9563;49.240;9.088;2023-04-24T06:02:26;5.73;;;3.07;;
18867;SDS011;9563;49.240;9.088;2023-04-24T06:04:57;4.27;;;2.80;;
18867;SDS011;9563;49.240;9.088;2023-04-24T06:07:24;5.20;;;2.93;;
18867;SDS011;9563;49.240;9.088;2023-04-24T06:09:52;9.07;;;3.13;;
18867;SDS011;9563;49.240;9.088;2023-04-24T06:12:19;5.33;;;3.10;;
18867;SDS011;9563;49.240;9.088;2023-04-24T06:14:46;7.93;;;2.83;;
18867;SDS011;9563;49.240;9.088;2023-04-24T06:17:13;4.57;;;2.63;;
18867;SDS011;9563;49.240;9.088;2023-04-24T06:19:40;5.13;;;3.27;;
18867;SDS011;9563;49.240;9.088;2023-04-24T06:22:07;6.40;;;3.00;;
18867;SDS011;9563;49.240;9.088;2023-04-24T06:24:34;6.30;;;3.27;;
18867;SDS011;9563;49.240;9.088;2023-04-24T06:27:02;6.10;;;3.40;;
18867;SDS011;9563;49.240;9.088;2023-04-24T06:29:29;4.13;;;3.20;;
18867;SDS011;9563;49.240;9.088;2023-04-24T06:31:56;6.83;;;3.30;;
18867;SDS011;9563;49.240;9.088;2023-04-24T06:34:22;5.10;;;2.80;;
18867;SDS011;9563;49.240;9.088;2023-04-24T06:36:49;6.27;;;2.67;;
18867;SDS011;9563;49.240;9.088;2023-04-24T06:39:16;4.87;;;3.17;;
18867;SDS011;9563;49.240;9.088;2023-04-24T06:41:43;7.17;;;2.70;;
18867;SDS011;9563;49.240;9.088;2023-04-24T06:44:12;4.07;;;2.90;;
18867;SDS011;9563;49.240;9.088;2023-04-24T06:46:39;6.03;;;3.83;;
18867;SDS011;9563;49.240;9.088;2023-04-24T06:49:06;5.67;;;3.30;;
18867;SDS011;9563;49.240;9.088;2023-04-24T06:51:33;4.10;;;3.20;;
18867;SDS011;9563;49.240;9.088;2023-04-24T06:54:00;6.37;;;3.00;;
18867;SDS011;9563;49.240;9.088;2023-04-24T06:56:27;3.90;;;2.80;;
18867;SDS011;9563;49.240;9.088;2023-04-24T06:58:54;5.40;;;2.77;;
18867;SDS011;9563;49.240;9.088;2023-04-24T07:01:22;6.93;;;2.80;;
18867;SDS011;9563;49.240;9.088;2023-04-24T07:03:49;6.97;;;2.73;;
18867;SDS011;9563;49.240;9.088;2023-04-24T07:06:16;9.77;;;2.70;;
18867;SDS011;9563;49.240;9.088;2023-04-24T07:08:43;3.57;;;2.40;;
18867;SDS011;9563;49.240;9.088;2023-04-24T07:11:10;3.30;;;2.20;;
18867;SDS011;9563;49.240;9.088;2023-04-24T07:13:37;2.77;;;2.13;;
18867;SDS011;9563;49.240;9.088;2023-04-24T07:16:06;4.83;;;2.00;;
18867;SDS011;9563;49.240;9.088;2023-04-24T07:18:35;3.57;;;2.10;;
18867;SDS011;9563;49.240;9.088;2023-04-24T07:21:02;6.10;;;1.93;;
18867;SDS011;9563;49.240;9.088;2023-04-24T07:23:29;4.33;;;1.93;;
18867;SDS011;9563;49.240;9.088;2023-04-24T07:25:56;2.43;;;1.77;;
18867;SDS011;9563;49.240;9.088;2023-04-24T07:28:23;2.50;;;1.53;;
18867;SDS011;9563;49.240;9.088;2023-04-24T07:30:50;4.40;;;1.90;;
18867;SDS011;9563;49.240;9.088;2023-04-24T07:33:19;2.70;;;1.50;;
18867;SDS011;9563;49.240;9.088;2023-04-24T07:35:47;2.50;;;1.70;;
18867;SDS011;9563;49.240;9.088;2023-04-24T07:38:14;3.70;;;1.70;;
18867;SDS011;9563;49.240;9.088;2023-04-24T07:40:41;4.55;;;1.83;;
18867;SDS011;9563;49.240;9.088;2023-04-24T07:43:08;6.00;;;1.80;;
18867;SDS011;9563;49.240;9.088;2023-04-24T07:45:34;2.33;;;1.80;;
18867;SDS011;9563;49.240;9.088;2023-04-24T07:48:02;2.70;;;1.70;;
18867;SDS011;9563;49.240;9.088;2023-04-24T07:50:29;3.57;;;1.47;;
18867;SDS011;9563;49.240;9.088;2023-04-24T07:52:58;3.78;;;1.58;;
18867;SDS011;9563;49.240;9.088;2023-04-24T07:55:24;3.57;;;1.70;;
18867;SDS011;9563;49.240;9.088;2023-04-24T07:57:51;3.80;;;1.50;;
18867;SDS011;9563;49.240;9.088;2023-04-24T08:00:18;5.37;;;1.73;;
18867;SDS011;9563;49.240;9.088;2023-04-24T08:02:46;4.10;;;1.50;;
18867;SDS011;9563;49.240;9.088;2023-04-24T08:05:12;2.08;;;1.50;;
18867;SDS011;9563;49.240;9.088;2023-04-24T08:07:39;3.28;;;1.60;;
18867;SDS011;9563;49.240;9.088;2023-04-24T08:10:09;1.77;;;1.37;;
18867;SDS011;9563;49.240;9.088;2023-04-24T08:12:36;1.92;;;1.40;;
18867;SDS011;9563;49.240;9.088;2023-04-24T08:15:04;3.28;;;1.77;;
18867;SDS011;9563;49.240;9.088;2023-04-24T08:17:31;5.10;;;1.65;;
18867;SDS011;9563;49.240;9.088;2023-04-24T08:19:58;3.58;;;1.40;;
18867;SDS011;9563;49.240;9.088;2023-04-24T08:22:26;3.67;;;1.40;;
18867;SDS011;9563;49.240;9.088;2023-04-24T08:24:53;2.42;;;1.55;;
18867;SDS011;9563;49.240;9.088;2023-04-24T08:27:22;2.77;;;1.53;;
18867;SDS011;9563;49.240;9.088;2023-04-24T08:29:49;5.03;;;1.80;;
18867;SDS011;9563;49.240;9.088;2023-04-24T08:32:16;1.43;;;1.20;;
18867;SDS011;9563;49.240;9.088;2023-04-24T08:34:43;2.43;;;1.40;;
18867;SDS011;9563;49.240;9.088;2023-04-24T08:37:10;3.60;;;1.37;;
18867;SDS011;9563;49.240;9.088;2023-04-24T08:39:37;2.83;;;1.40;;
18867;SDS011;9563;49.240;9.088;2023-04-24T08:42:04;1.37;;;1.20;;
18867;SDS011;9563;49.240;9.088;2023-04-24T08:44:34;5.83;;;1.70;;
18867;SDS011;9563;49.240;9.088;2023-04-24T08:47:02;2.23;;;1.40;;
18867;SDS011;9563;49.240;9.088;2023-04-24T08:49:29;2.57;;;1.50;;
18867;SDS011;9563;49.240;9.088;2023-04-24T08:51:57;2.97;;;1.87;;
18867;SDS011;9563;49.240;9.088;2023-04-24T08:54:24;3.53;;;1.55;;
18867;SDS011;9563;49.240;9.088;2023-04-24T08:56:51;3.53;;;1.20;;
18867;SDS011;9563;49.240;9.088;2023-04-24T08:59:22;3.07;;;1.73;;
18867;SDS011;9563;49.240;9.088;2023-04-24T09:01:51;3.80;;;1.50;;
18867;SDS011;9563;49.240;9.088;2023-04-24T09:04:18;5.82;;;1.90;;
18867;SDS011;9563;49.240;9.088;2023-04-24T09:06:47;2.53;;;1.52;;
18867;SDS011;9563;49.240;9.088;2023-04-24T09:09:14;3.47;;;1.60;;
18867;SDS011;9563;49.240;9.088;2023-04-24T09:11:43;1.52;;;1.30;;
18867;SDS011;9563;49.240;9.088;2023-04-24T09:14:10;1.55;;;1.15;;
18867;SDS011;9563;49.240;9.088;2023-04-24T09:16:38;2.97;;;1.23;;
18867;SDS011;9563;49.240;9.088;2023-04-24T09:19:06;3.67;;;1.40;;
18867;SDS011;9563;49.240;9.088;2023-04-24T09:21:34;1.42;;;1.05;;
18867;SDS011;9563;49.240;9.088;2023-04-24T09:24:04;1.92;;;1.20;;
18867;SDS011;9563;49.240;9.088;2023-04-24T09:26:32;7.60;;;1.20;;
18867;SDS011;9563;49.240;9.088;2023-04-24T09:29:01;5.00;;;1.40;;
18867;SDS011;9563;49.240;9.088;2023-04-24T09:31:30;3.70;;;1.30;;
18867;SDS011;9563;49.240;9.088;2023-04-24T09:33:57;4.88;;;1.20;;
18867;SDS011;9563;49.240;9.088;2023-04-24T09:36:30;4.30;;;1.20;;
18867;SDS011;9563;49.240;9.088;2023-04-24T09:38:59;4.77;;;1.60;;
18867;SDS011;9563;49.240;9.088;2023-04-24T09:41:27;2.07;;;1.53;;
18867;SDS011;9563;49.240;9.088;2023-04-24T09:43:55;4.20;;;1.20;;
18867;SDS011;9563;49.240;9.088;2023-04-24T09:46:28;2.17;;;1.50;;
18867;SDS011;9563;49.240;9.088;2023-04-24T09:48:57;2.05;;;1.25;;
18867;SDS011;9563;49.240;9.088;2023-04-24T09:51:35;6.72;;;1.42;;
18867;SDS011;9563;49.240;9.088;2023-04-24T09:54:02;2.17;;;1.25;;
18867;SDS011;9563;49.240;9.088;2023-04-24T09:56:32;3.15;;;1.60;;
18867;SDS011;9563;49.240;9.088;2023-04-24T09:59:05;6.43;;;1.42;;
18867;SDS011;9563;49.240;9.088;2023-04-24T10:01:32;4.68;;;1.65;;
18867;SDS011;9563;49.240;9.088;2023-04-24T10:03:59;4.78;;;1.63;;
18867;SDS011;9563;49.240;9.088;2023-04-24T10:06:30;2.55;;;1.55;;
18867;SDS011;9563;49.240;9.088;2023-04-24T10:09:01;5.80;;;1.70;;
18867;SDS011;9563;49.240;9.088;2023-04-24T10:11:28;6.07;;;2.00;;
18867;SDS011;9563;49.240;9.088;2023-04-24T10:13:56;3.33;;;2.17;;
18867;SDS011;9563;49.240;9.088;2023-04-24T10:16:24;4.33;;;1.83;;
18867;SDS011;9563;49.240;9.088;2023-04-24T10:18:53;4.20;;;2.10;;
18867;SDS011;9563;49.240;9.088;2023-04-24T10:21:21;5.00;;;2.37;;
18867;SDS011;9563;49.240;9.088;2023-04-24T10:23:49;4.47;;;2.20;;
18867;SDS011;9563;49.240;9.088;2023-04-24T10:26:18;9.17;;;2.33;;
18867;SDS011;9563;49.240;9.088;2023-04-24T10:28:46;2.40;;;1.90;;
18867;SDS011;9563;49.240;9.088;2023-04-24T10:31:14;4.23;;;2.50;;
18867;SDS011;9563;49.240;9.088;2023-04-24T10:33:41;3.43;;;2.60;;
18867;SDS011;9563;49.240;9.088;2023-04-24T10:36:09;5.75;;;2.38;;
18867;SDS011;9563;49.240;9.088;2023-04-24T10:38:38;4.32;;;2.45;;
18867;SDS011;9563;49.240;9.088;2023-04-24T10:41:08;4.32;;;2.58;;
18867;SDS011;9563;49.240;9.088;2023-04-24T10:43:45;5.00;;;2.70;;
18867;SDS011;9563;49.240;9.088;2023-04-24T10:46:17;3.28;;;2.20;;
18867;SDS011;9563;49.240;9.088;2023-04-24T10:48:51;6.03;;;2.30;;
18867;SDS011;9563;49.240;9.088;2023-04-24T10:51:21;10.70;;;2.20;;
18867;SDS011;9563;49.240;9.088;2023-04-24T10:53:49;3.20;;;2.20;;
18867;SDS011;9563;49.240;9.088;2023-04-24T10:56:17;4.05;;;2.20;;
18867;SDS011;9563;49.240;9.088;2023-04-24T10:58:44;2.97;;;2.28;;
18867;SDS011;9563;49.240;9.088;2023-04-24T11:01:23;7.95;;;2.67;;
18867;SDS011;9563;49.240;9.088;2023-04-24T11:03:54;4.28;;;2.40;;
18867;SDS011;9563;49.240;9.088;2023-04-24T11:06:28;3.88;;;2.80;;
18867;SDS011;9563;49.240;9.088;2023-04-24T11:08:59;8.93;;;2.88;;
18867;SDS011;9563;49.240;9.088;2023-04-24T11:11:30;3.42;;;2.58;;
18867;SDS011;9563;49.240;9.088;2023-04-24T11:14:02;8.23;;;3.75;;
18867;SDS011;9563;49.240;9.088;2023-04-24T11:16:34;13.57;;;3.40;;
18867;SDS011;9563;49.240;9.088;2023-04-24T11:19:05;4.17;;;2.97;;
18867;SDS011;9563;49.240;9.088;2023-04-24T11:21:39;6.57;;;3.70;;
18867;SDS011;9563;49.240;9.088;2023-04-24T11:24:23;5.07;;;2.97;;
18867;SDS011;9563;49.240;9.088;2023-04-24T11:26:52;3.47;;;2.63;;
18867;SDS011;9563;49.240;9.088;2023-04-24T11:29:23;3.87;;;2.63;;
18867;SDS011;9563;49.240;9.088;2023-04-24T11:32:13;5.70;;;3.10;;
18867;SDS011;9563;49.240;9.088;2023-04-24T11:34:45;5.90;;;3.00;;
18867;SDS011;9563;49.240;9.088;2023-04-24T11:37:12;4.68;;;3.10;;
18867;SDS011;9563;49.240;9.088;2023-04-24T11:39:40;5.85;;;3.05;;
18867;SDS011;9563;49.240;9.088;2023-04-24T11:42:07;5.50;;;2.50;;
18867;SDS011;9563;49.240;9.088;2023-04-24T11:44:36;4.80;;;2.90;;
18867;SDS011;9563;49.240;9.088;2023-04-24T11:47:03;4.75;;;3.20;;
18867;SDS011;9563;49.240;9.088;2023-04-24T11:49:30;6.82;;;3.30;;
18867;SDS011;9563;49.240;9.088;2023-04-24T11:51:57;4.80;;;2.80;;
18867;SDS011;9563;49.240;9.088;2023-04-24T11:54:25;4.30;;;2.97;;
18867;SDS011;9563;49.240;9.088;2023-04-24T11:56:52;6.50;;;3.00;;
18867;SDS011;9563;49.240;9.088;2023-04-24T11:59:19;8.25;;;3.22;;
18867;SDS011;9563;49.240;9.088;2023-04-24T12:01:47;3.95;;;2.30;;
18867;SDS011;9563;49.240;9.088;2023-04-24T12:04:15;7.32;;;2.97;;
18867;SDS011;9563;49.240;9.088;2023-04-24T12:09:25;5.88;;;2.80;;
18867;SDS011;9563;49.240;9.088;2023-04-24T12:11:52;4.68;;;2.85;;
18867;SDS011;9563;49.240;9.088;2023-04-24T12:14:20;2.90;;;2.25;;
18867;SDS011;9563;49.240;9.088;2023-04-24T12:16:48;2.75;;;2.40;;
18867;SDS011;9563;49.240;9.088;2023-04-24T12:19:17;5.53;;;3.08;;
18867;SDS011;9563;49.240;9.088;2023-04-24T12:21:58;5.35;;;3.22;;
18867;SDS011;9563;49.240;9.088;2023-04-24T12:24:25;5.07;;;2.97;;
18867;SDS011;9563;49.240;9.088;2023-04-24T12:26:52;3.88;;;2.60;;
18867;SDS011;9563;49.240;9.088;2023-04-24T12:29:19;3.33;;;2.57;;
18867;SDS011;9563;49.240;9.088;2023-04-24T12:31:46;5.97;;;3.38;;
18867;SDS011;9563;49.240;9.088;2023-04-24T12:34:18;6.20;;;2.88;;
18867;SDS011;9563;49.240;9.088;2023-04-24T12:36:46;4.30;;;2.90;;
18867;SDS011;9563;49.240;9.088;2023-04-24T12:39:16;4.63;;;2.88;;
18867;SDS011;9563;49.240;9.088;2023-04-24T12:41:55;4.63;;;2.90;;
18867;SDS011;9563;49.240;9.088;2023-04-24T12:44:29;6.32;;;2.50;;
18867;SDS011;9563;49.240;9.088;2023-04-24T12:46:58;4.20;;;2.45;;
18867;SDS011;9563;49.240;9.088;2023-04-24T12:49:25;3.63;;;2.60;;
18867;SDS011;9563;49.240;9.088;2023-04-24T12:51:52;4.18;;;3.15;;
18867;SDS011;9563;49.240;9.088;2023-04-24T12:54:20;8.68;;;3.05;;
18867;SDS011;9563;49.240;9.088;2023-04-24T12:56:47;5.90;;;3.28;;
18867;SDS011;9563;49.240;9.088;2023-04-24T12:59:13;4.70;;;2.90;;
18867;SDS011;9563;49.240;9.088;2023-04-24T13:01:40;2.78;;;2.45;;
18867;SDS011;9563;49.240;9.088;2023-04-24T13:04:09;4.28;;;2.65;;
18867;SDS011;9563;49.240;9.088;2023-04-24T13:06:36;6.35;;;2.65;;
18867;SDS011;9563;49.240;9.088;2023-04-24T13:09:03;4.47;;;2.60;;
18867;SDS011;9563;49.240;9.088;2023-04-24T13:11:30;4.55;;;2.85;;
18867;SDS011;9563;49.240;9.088;2023-04-24T13:13:57;4.95;;;2.60;;
18867;SDS011;9563;49.240;9.088;2023-04-24T13:16:24;4.13;;;2.70;;
18867;SDS011;9563;49.240;9.088;2023-04-24T13:18:50;3.72;;;3.03;;
18867;SDS011;9563;49.240;9.088;2023-04-24T13:21:19;5.97;;;2.88;;
18867;SDS011;9563;49.240;9.088;2023-04-24T13:23:45;5.40;;;3.38;;
18867;SDS011;9563;49.240;9.088;2023-04-24T13:26:12;5.18;;;2.78;;
18867;SDS011;9563;49.240;9.088;2023-04-24T13:28:39;5.28;;;3.20;;
18867;SDS011;9563;49.240;9.088;2023-04-24T13:31:06;4.82;;;3.15;;
18867;SDS011;9563;49.240;9.088;2023-04-24T13:33:33;7.80;;;3.00;;
18867;SDS011;9563;49.240;9.088;2023-04-24T13:36:00;7.78;;;3.20;;
18867;SDS011;9563;49.240;9.088;2023-04-24T13:38:28;4.05;;;2.85;;
18867;SDS011;9563;49.240;9.088;2023-04-24T13:40:55;4.20;;;2.42;;
18867;SDS011;9563;49.240;9.088;2023-04-24T13:43:22;5.70;;;3.05;;
18867;SDS011;9563;49.240;9.088;2023-04-24T13:45:49;8.30;;;3.03;;
18867;SDS011;9563;49.240;9.088;2023-04-24T13:48:15;7.72;;;2.95;;
18867;SDS011;9563;49.240;9.088;2023-04-24T13:50:43;2.95;;;2.30;;
18867;SDS011;9563;49.240;9.088;2023-04-24T13:53:13;11.30;;;3.00;;
18867;SDS011;9563;49.240;9.088;2023-04-24T13:55:41;5.85;;;2.58;;
18867;SDS011;9563;49.240;9.088;2023-04-24T13:58:08;4.18;;;2.55;;
18867;SDS011;9563;49.240;9.088;2023-04-24T14:00:35;6.25;;;2.60;;
18867;SDS011;9563;49.240;9.088;2023-04-24T14:03:03;4.57;;;2.35;;
18867;SDS011;9563;49.240;9.088;2023-04-24T14:05:30;6.22;;;2.78;;
18867;SDS011;9563;49.240;9.088;2023-04-24T14:07:57;4.57;;;2.22;;
18867;SDS011;9563;49.240;9.088;2023-04-24T14:10:23;4.90;;;2.50;;
18867;SDS011;9563;49.240;9.088;2023-04-24T14:12:53;3.17;;;2.30;;
18867;SDS011;9563;49.240;9.088;2023-04-24T14:15:20;6.00;;;2.85;;
18867;SDS011;9563;49.240;9.088;2023-04-24T14:17:47;5.43;;;2.33;;
18867;SDS011;9563;49.240;9.088;2023-04-24T14:20:14;3.40;;;2.25;;
18867;SDS011;9563;49.240;9.088;2023-04-24T14:22:41;5.93;;;3.38;;
18867;SDS011;9563;49.240;9.088;2023-04-24T14:25:09;5.70;;;3.50;;
18867;SDS011;9563;49.240;9.088;2023-04-24T14:27:35;7.97;;;3.35;;
18867;SDS011;9563;49.240;9.088;2023-04-24T14:30:04;5.25;;;3.40;;
18867;SDS011;9563;49.240;9.088;2023-04-24T14:32:32;4.75;;;3.33;;
18867;SDS011;9563;49.240;9.088;2023-04-24T14:34:59;5.55;;;2.97;;
18867;SDS011;9563;49.240;9.088;2023-04-24T14:37:26;6.75;;;3.10;;
18867;SDS011;9563;49.240;9.088;2023-04-24T14:39:53;6.72;;;2.83;;
18867;SDS011;9563;49.240;9.088;2023-04-24T14:42:20;7.07;;;3.08;;
18867;SDS011;9563;49.240;9.088;2023-04-24T14:44:47;7.07;;;2.88;;
18867;SDS011;9563;49.240;9.088;2023-04-24T14:47:15;4.25;;;2.88;;
18867;SDS011;9563;49.240;9.088;2023-04-24T14:49:42;7.13;;;2.97;;
18867;SDS011;9563;49.240;9.088;2023-04-24T14:52:09;6.53;;;2.90;;
18867;SDS011;9563;49.240;9.088;2023-04-24T14:54:36;5.40;;;2.60;;
18867;SDS011;9563;49.240;9.088;2023-04-24T14:57:03;6.45;;;2.70;;
18867;SDS011;9563;49.240;9.088;2023-04-24T14:59:30;3.78;;;2.42;;
18867;SDS011;9563;49.240;9.088;2023-04-24T15:01:57;3.80;;;2.65;;
18867;SDS011;9563;49.240;9.088;2023-04-24T15:04:25;6.45;;;3.28;;
18867;SDS011;9563;49.240;9.088;2023-04-24T15:06:53;5.10;;;2.63;;
18867;SDS011;9563;49.240;9.088;2023-04-24T15:09:20;5.95;;;3.20;;
18867;SDS011;9563;49.240;9.088;2023-04-24T15:11:48;5.75;;;2.67;;
18867;SDS011;9563;49.240;9.088;2023-04-24T15:14:16;4.10;;;2.60;;
18867;SDS011;9563;49.240;9.088;2023-04-24T15:16:43;3.80;;;2.72;;
18867;SDS011;9563;49.240;9.088;2023-04-24T15:19:10;4.90;;;2.78;;
18867;SDS011;9563;49.240;9.088;2023-04-24T15:21:39;6.35;;;2.85;;
18867;SDS011;9563;49.240;9.088;2023-04-24T15:24:07;5.22;;;2.50;;
18867;SDS011;9563;49.240;9.088;2023-04-24T15:26:34;5.63;;;2.58;;
18867;SDS011;9563;49.240;9.088;2023-04-24T15:29:01;3.58;;;2.20;;
18867;SDS011;9563;49.240;9.088;2023-04-24T15:31:28;3.92;;;2.88;;
18867;SDS011;9563;49.240;9.088;2023-04-24T15:33:55;5.40;;;2.70;;
18867;SDS011;9563;49.240;9.088;2023-04-24T15:36:22;4.30;;;2.50;;
18867;SDS011;9563;49.240;9.088;2023-04-24T15:38:51;6.78;;;2.88;;
18867;SDS011;9563;49.240;9.088;2023-04-24T15:41:18;6.25;;;2.75;;
18867;SDS011;9563;49.240;9.088;2023-04-24T15:43:44;4.35;;;2.47;;
18867;SDS011;9563;49.240;9.088;2023-04-24T15:46:11;5.25;;;2.90;;
18867;SDS011;9563;49.240;9.088;2023-04-24T15:48:38;5.22;;;2.67;;
18867;SDS011;9563;49.240;9.088;2023-04-24T15:51:07;3.45;;;2.58;;
18867;SDS011;9563;49.240;9.088;2023-04-24T15:53:34;7.40;;;2.88;;
18867;SDS011;9563;49.240;9.088;2023-04-24T15:56:02;4.80;;;2.53;;
18867;SDS011;9563;49.240;9.088;2023-04-24T15:58:29;4.65;;;2.60;;
18867;SDS011;9563;49.240;9.088;2023-04-24T16:00:56;4.18;;;2.80;;
18867;SDS011;9563;49.240;9.088;2023-04-24T16:03:24;6.22;;;3.10;;
18867;SDS011;9563;49.240;9.088;2023-04-24T16:05:51;6.25;;;2.70;;
18867;SDS011;9563;49.240;9.088;2023-04-24T16:08:18;5.80;;;2.65;;
18867;SDS011;9563;49.240;9.088;2023-04-24T16:10:46;5.00;;;2.47;;
18867;SDS011;9563;49.240;9.088;2023-04-24T16:13:14;3.85;;;2.40;;
18867;SDS011;9563;49.240;9.088;2023-04-24T16:15:42;4.40;;;2.55;;
18867;SDS011;9563;49.240;9.088;2023-04-24T16:18:09;4.07;;;2.50;;
18867;SDS011;9563;49.240;9.088;2023-04-24T16:20:36;6.00;;;2.50;;
18867;SDS011;9563;49.240;9.088;2023-04-24T16:23:03;6.50;;;2.38;;
18867;SDS011;9563;49.240;9.088;2023-04-24T16:25:30;4.20;;;2.05;;
18867;SDS011;9563;49.240;9.088;2023-04-24T16:27:57;5.97;;;2.35;;
18867;SDS011;9563;49.240;9.088;2023-04-24T16:30:26;4.20;;;2.00;;
18867;SDS011;9563;49.240;9.088;2023-04-24T16:32:53;1.92;;;1.63;;
18867;SDS011;9563;49.240;9.088;2023-04-24T16:35:19;3.22;;;2.28;;
18867;SDS011;9563;49.240;9.088;2023-04-24T16:37:46;4.32;;;2.30;;
18867;SDS011;9563;49.240;9.088;2023-04-24T16:40:13;4.07;;;2.30;;
18867;SDS011;9563;49.240;9.088;2023-04-24T16:42:40;4.15;;;2.28;;
18867;SDS011;9563;49.240;9.088;2023-04-24T16:45:07;4.35;;;2.70;;
18867;SDS011;9563;49.240;9.088;2023-04-24T16:47:36;4.85;;;2.75;;
18867;SDS011;9563;49.240;9.088;2023-04-24T16:50:03;5.00;;;2.40;;
18867;SDS011;9563;49.240;9.088;2023-04-24T16:52:31;4.32;;;2.38;;
18867;SDS011;9563;49.240;9.088;2023-04-24T16:54:57;1.90;;;1.70;;
18867;SDS011;9563;49.240;9.088;2023-04-24T16:57:24;2.25;;;1.83;;
18867;SDS011;9563;49.240;9.088;2023-04-24T16:59:51;2.47;;;1.83;;
18867;SDS011;9563;49.240;9.088;2023-04-24T17:02:18;4.67;;;1.70;;
18867;SDS011;9563;49.240;9.088;2023-04-24T17:04:46;2.47;;;1.90;;
18867;SDS011;9563;49.240;9.088;2023-04-24T17:07:13;2.13;;;1.50;;
18867;SDS011;9563;49.240;9.088;2023-04-24T17:09:41;2.83;;;1.80;;
18867;SDS011;9563;49.240;9.088;2023-04-24T17:12:08;2.72;;;1.67;;
18867;SDS011;9563;49.240;9.088;2023-04-24T17:14:35;3.03;;;1.60;;
18867;SDS011;9563;49.240;9.088;2023-04-24T17:17:01;1.93;;;1.73;;
18867;SDS011;9563;49.240;9.088;2023-04-24T17:19:29;2.95;;;1.85;;
18867;SDS011;9563;49.240;9.088;2023-04-24T17:21:57;2.90;;;1.90;;
18867;SDS011;9563;49.240;9.088;2023-04-24T17:24:23;3.83;;;2.60;;
18867;SDS011;9563;49.240;9.088;2023-04-24T17:26:51;3.00;;;2.17;;
18867;SDS011;9563;49.240;9.088;2023-04-24T17:29:17;4.53;;;2.50;;
18867;SDS011;9563;49.240;9.088;2023-04-24T17:31:44;2.67;;;2.37;;
18867;SDS011;9563;49.240;9.088;2023-04-24T17:34:11;5.45;;;2.20;;
18867;SDS011;9563;49.240;9.088;2023-04-24T17:36:38;2.38;;;1.98;;
18867;SDS011;9563;49.240;9.088;2023-04-24T17:39:06;3.05;;;2.22;;
18867;SDS011;9563;49.240;9.088;2023-04-24T17:41:34;2.70;;;1.77;;
18867;SDS011;9563;49.240;9.088;2023-04-24T17:44:01;2.47;;;1.93;;
18867;SDS011;9563;49.240;9.088;2023-04-24T17:46:28;4.97;;;2.17;;
18867;SDS011;9563;49.240;9.088;2023-04-24T17:48:55;4.00;;;2.70;;
18867;SDS011;9563;49.240;9.088;2023-04-24T17:51:21;3.92;;;2.58;;
18867;SDS011;9563;49.240;9.088;2023-04-24T17:53:48;3.97;;;2.67;;
18867;SDS011;9563;49.240;9.088;2023-04-24T17:56:17;3.58;;;2.63;;
18867;SDS011;9563;49.240;9.088;2023-04-24T17:58:44;5.20;;;3.33;;
18867;SDS011;9563;49.240;9.088;2023-04-24T18:01:11;5.13;;;2.87;;
18867;SDS011;9563;49.240;9.088;2023-04-24T18:03:38;8.60;;;3.10;;
18867;SDS011;9563;49.240;9.088;2023-04-24T18:06:07;4.50;;;3.37;;
18867;SDS011;9563;49.240;9.088;2023-04-24T18:08:34;6.20;;;3.80;;
18867;SDS011;9563;49.240;9.088;2023-04-24T18:11:01;4.03;;;2.77;;
18867;SDS011;9563;49.240;9.088;2023-04-24T18:13:30;2.60;;;2.40;;
18867;SDS011;9563;49.240;9.088;2023-04-24T18:15:56;5.13;;;2.47;;
18867;SDS011;9563;49.240;9.088;2023-04-24T18:18:23;3.17;;;2.10;;
18867;SDS011;9563;49.240;9.088;2023-04-24T18:20:50;3.93;;;2.13;;
18867;SDS011;9563;49.240;9.088;2023-04-24T18:23:17;2.53;;;2.00;;
18867;SDS011;9563;49.240;9.088;2023-04-24T18:25:44;3.33;;;2.00;;
18867;SDS011;9563;49.240;9.088;2023-04-24T18:28:11;5.17;;;2.13;;
18867;SDS011;9563;49.240;9.088;2023-04-24T18:30:39;3.77;;;2.40;;
18867;SDS011;9563;49.240;9.088;2023-04-24T18:33:06;3.67;;;2.27;;
18867;SDS011;9563;49.240;9.088;2023-04-24T18:35:33;4.63;;;2.33;;
18867;SDS011;9563;49.240;9.088;2023-04-24T18:38:00;2.63;;;2.13;;
18867;SDS011;9563;49.240;9.088;2023-04-24T18:40:27;5.27;;;2.43;;
18867;SDS011;9563;49.240;9.088;2023-04-24T18:42:54;5.47;;;2.10;;
18867;SDS011;9563;49.240;9.088;2023-04-24T18:45:21;3.97;;;2.00;;
18867;SDS011;9563;49.240;9.088;2023-04-24T18:47:50;2.73;;;2.03;;
18867;SDS011;9563;49.240;9.088;2023-04-24T18:50:17;6.10;;;3.10;;
18867;SDS011;9563;49.240;9.088;2023-04-24T18:52:44;5.70;;;2.20;;
18867;SDS011;9563;49.240;9.088;2023-04-24T18:55:11;2.93;;;2.43;;
18867;SDS011;9563;49.240;9.088;2023-04-24T18:57:38;2.40;;;2.20;;
18867;SDS011;9563;49.240;9.088;2023-04-24T19:00:06;3.83;;;2.30;;
18867;SDS011;9563;49.240;9.088;2023-04-24T19:02:33;3.20;;;2.30;;
18867;SDS011;9563;49.240;9.088;2023-04-24T19:05:01;5.10;;;2.80;;
18867;SDS011;9563;49.240;9.088;2023-04-24T19:07:28;4.30;;;2.30;;
18867;SDS011;9563;49.240;9.088;2023-04-24T19:09:55;4.43;;;2.37;;
18867;SDS011;9563;49.240;9.088;2023-04-24T19:12:22;4.33;;;2.50;;
18867;SDS011;9563;49.240;9.088;2023-04-24T19:14:49;4.40;;;2.70;;
18867;SDS011;9563;49.240;9.088;2023-04-24T19:17:19;3.90;;;2.37;;
18867;SDS011;9563;49.240;9.088;2023-04-24T19:19:48;3.67;;;2.40;;
18867;SDS011;9563;49.240;9.088;2023-04-24T19:22:18;3.90;;;2.60;;
18867;SDS011;9563;49.240;9.088;2023-04-24T19:24:45;5.47;;;2.80;;
18867;SDS011;9563;49.240;9.088;2023-04-24T19:27:11;3.27;;;2.43;;
18867;SDS011;9563;49.240;9.088;2023-04-24T19:29:38;3.80;;;2.77;;
18867;SDS011;9563;49.240;9.088;2023-04-24T19:32:06;7.07;;;3.20;;
18867;SDS011;9563;49.240;9.088;2023-04-24T19:34:33;6.47;;;3.17;;
18867;SDS011;9563;49.240;9.088;2023-04-24T19:37:00;4.00;;;2.93;;
18867;SDS011;9563;49.240;9.088;2023-04-24T19:39:29;3.57;;;2.63;;
18867;SDS011;9563;49.240;9.088;2023-04-24T19:41:56;3.90;;;2.50;;
18867;SDS011;9563;49.240;9.088;2023-04-24T19:44:24;7.53;;;2.97;;
18867;SDS011;9563;49.240;9.088;2023-04-24T19:46:51;7.13;;;3.23;;
18867;SDS011;9563;49.240;9.088;2023-04-24T19:49:18;5.13;;;3.40;;
18867;SDS011;9563;49.240;9.088;2023-04-24T19:51:45;3.93;;;2.87;;
18867;SDS011;9563;49.240;9.088;2023-04-24T19:54:12;6.03;;;2.97;;
18867;SDS011;9563;49.240;9.088;2023-04-24T19:56:40;6.57;;;3.10;;
18867;SDS011;9563;49.240;9.088;2023-04-24T19:59:07;5.93;;;3.30;;
18867;SDS011;9563;49.240;9.088;2023-04-24T20:01:34;4.60;;;3.07;;
18867;SDS011;9563;49.240;9.088;2023-04-24T20:04:00;5.03;;;3.10;;
18867;SDS011;9563;49.240;9.088;2023-04-24T20:06:27;3.93;;;3.07;;